sensor_id;sensor_type;location;lat;lon;timestamp;P1;durP1;ratioP1;P2;durP2;ratioP2
50954;SDS011;36966;48.064;-0.792;2023-04-02T00:01:18;5.85;;;2.15;;
50954;SDS011;36966;48.064;-0.792;2023-04-02T00:08:51;5.55;;;1.35;;
50954;SDS011;36966;48.064;-0.792;2023-04-02T00:11:13;4.90;;;1.45;;
50954;SDS011;36966;48.064;-0.792;2023-04-02T00:13:48;4.30;;;1.77;;
50954;SDS011;36966;48.064;-0.792;2023-04-02T00:16:11;4.97;;;1.73;;
50954;SDS011;36966;48.064;-0.792;2023-04-02T00:18:41;2.42;;;1.23;;
50954;SDS011;36966;48.064;-0.792;2023-04-02T00:23:35;5.80;;;1.67;;
50954;SDS011;36966;48.064;-0.792;2023-04-02T00:25:58;6.50;;;1.88;;
50954;SDS011;36966;48.064;-0.792;2023-04-02T00:28:19;8.13;;;2.70;;
50954;SDS011;36966;48.064;-0.792;2023-04-02T00:30:53;6.38;;;2.00;;
50954;SDS011;36966;48.064;-0.792;2023-04-02T00:33:16;5.60;;;1.40;;
50954;SDS011;36966;48.064;-0.792;2023-04-02T00:35:38;1.90;;;1.45;;
50954;SDS011;36966;48.064;-0.792;2023-04-02T00:37:59;3.78;;;1.73;;
50954;SDS011;36966;48.064;-0.792;2023-04-02T00:40:21;3.22;;;1.92;;
50954;SDS011;36966;48.064;-0.792;2023-04-02T00:42:47;4.45;;;1.77;;
50954;SDS011;36966;48.064;-0.792;2023-04-02T00:45:18;5.53;;;2.13;;
50954;SDS011;36966;48.064;-0.792;2023-04-02T00:47:40;6.45;;;1.95;;
50954;SDS011;36966;48.064;-0.792;2023-04-02T00:50:17;3.80;;;1.63;;
50954;SDS011;36966;48.064;-0.792;2023-04-02T00:52:56;4.32;;;1.67;;
50954;SDS011;36966;48.064;-0.792;2023-04-02T00:55:26;6.43;;;2.05;;
50954;SDS011;36966;48.064;-0.792;2023-04-02T01:02:38;5.95;;;2.35;;
50954;SDS011;36966;48.064;-0.792;2023-04-02T01:05:06;4.82;;;1.95;;
50954;SDS011;36966;48.064;-0.792;2023-04-02T01:07:50;3.92;;;1.65;;
50954;SDS011;36966;48.064;-0.792;2023-04-02T01:10:15;3.97;;;1.20;;
50954;SDS011;36966;48.064;-0.792;2023-04-02T01:15:32;6.57;;;1.98;;
50954;SDS011;36966;48.064;-0.792;2023-04-02T01:25:30;6.57;;;1.80;;
50954;SDS011;36966;48.064;-0.792;2023-04-02T01:28:06;6.22;;;1.80;;
50954;SDS011;36966;48.064;-0.792;2023-04-02T01:30:32;3.35;;;1.67;;
50954;SDS011;36966;48.064;-0.792;2023-04-02T01:32:54;3.97;;;2.20;;
50954;SDS011;36966;48.064;-0.792;2023-04-02T01:35:14;6.03;;;2.13;;
50954;SDS011;36966;48.064;-0.792;2023-04-02T01:45:33;4.10;;;1.63;;
50954;SDS011;36966;48.064;-0.792;2023-04-02T01:47:52;4.82;;;2.15;;
50954;SDS011;36966;48.064;-0.792;2023-04-02T01:52:40;5.13;;;2.05;;
50954;SDS011;36966;48.064;-0.792;2023-04-02T01:55:03;5.40;;;1.73;;
50954;SDS011;36966;48.064;-0.792;2023-04-02T01:57:23;5.90;;;2.00;;
50954;SDS011;36966;48.064;-0.792;2023-04-02T01:59:43;7.93;;;2.63;;
50954;SDS011;36966;48.064;-0.792;2023-04-02T02:02:04;3.60;;;1.85;;
50954;SDS011;36966;48.064;-0.792;2023-04-02T02:04:25;4.32;;;1.90;;
50954;SDS011;36966;48.064;-0.792;2023-04-02T02:06:44;4.15;;;1.98;;
50954;SDS011;36966;48.064;-0.792;2023-04-02T02:09:05;3.30;;;1.95;;
50954;SDS011;36966;48.064;-0.792;2023-04-02T02:11:27;6.13;;;1.88;;
50954;SDS011;36966;48.064;-0.792;2023-04-02T02:13:53;2.97;;;1.52;;
50954;SDS011;36966;48.064;-0.792;2023-04-02T02:16:14;5.18;;;1.70;;
50954;SDS011;36966;48.064;-0.792;2023-04-02T02:18:35;5.50;;;2.22;;
50954;SDS011;36966;48.064;-0.792;2023-04-02T02:20:56;5.30;;;1.80;;
50954;SDS011;36966;48.064;-0.792;2023-04-02T02:23:19;3.33;;;1.35;;
50954;SDS011;36966;48.064;-0.792;2023-04-02T02:25:39;4.30;;;2.08;;
50954;SDS011;36966;48.064;-0.792;2023-04-02T02:28:05;4.28;;;1.67;;
50954;SDS011;36966;48.064;-0.792;2023-04-02T02:33:20;8.02;;;2.65;;
50954;SDS011;36966;48.064;-0.792;2023-04-02T02:35:51;5.63;;;1.47;;
50954;SDS011;36966;48.064;-0.792;2023-04-02T02:38:36;4.15;;;2.05;;
50954;SDS011;36966;48.064;-0.792;2023-04-02T02:41:02;2.88;;;1.67;;
50954;SDS011;36966;48.064;-0.792;2023-04-02T02:43:29;8.93;;;1.77;;
50954;SDS011;36966;48.064;-0.792;2023-04-02T02:45:49;5.68;;;1.95;;
50954;SDS011;36966;48.064;-0.792;2023-04-02T02:48:15;6.43;;;2.05;;
50954;SDS011;36966;48.064;-0.792;2023-04-02T02:50:38;4.35;;;1.70;;
50954;SDS011;36966;48.064;-0.792;2023-04-02T02:53:02;4.43;;;1.70;;
50954;SDS011;36966;48.064;-0.792;2023-04-02T02:55:23;6.05;;;2.00;;
50954;SDS011;36966;48.064;-0.792;2023-04-02T02:57:48;6.60;;;2.45;;
50954;SDS011;36966;48.064;-0.792;2023-04-02T03:00:12;4.35;;;2.15;;
50954;SDS011;36966;48.064;-0.792;2023-04-02T03:02:34;5.72;;;2.13;;
50954;SDS011;36966;48.064;-0.792;2023-04-02T03:04:55;4.68;;;2.00;;
50954;SDS011;36966;48.064;-0.792;2023-04-02T03:07:16;4.65;;;2.00;;
50954;SDS011;36966;48.064;-0.792;2023-04-02T03:14:54;4.45;;;1.85;;
50954;SDS011;36966;48.064;-0.792;2023-04-02T03:17:19;4.68;;;2.40;;
50954;SDS011;36966;48.064;-0.792;2023-04-02T03:19:49;3.70;;;2.25;;
50954;SDS011;36966;48.064;-0.792;2023-04-02T03:22:48;6.90;;;2.13;;
50954;SDS011;36966;48.064;-0.792;2023-04-02T03:27:41;6.07;;;2.05;;
50954;SDS011;36966;48.064;-0.792;2023-04-02T03:32:41;6.10;;;2.35;;
50954;SDS011;36966;48.064;-0.792;2023-04-02T03:35:12;5.85;;;2.15;;
50954;SDS011;36966;48.064;-0.792;2023-04-02T03:37:47;9.20;;;3.35;;
50954;SDS011;36966;48.064;-0.792;2023-04-02T03:40:25;4.95;;;1.95;;
50954;SDS011;36966;48.064;-0.792;2023-04-02T03:42:53;3.92;;;2.08;;
50954;SDS011;36966;48.064;-0.792;2023-04-02T03:45:22;23.38;;;2.47;;
50954;SDS011;36966;48.064;-0.792;2023-04-02T03:47:46;8.00;;;2.25;;
50954;SDS011;36966;48.064;-0.792;2023-04-02T03:52:39;6.90;;;2.10;;
50954;SDS011;36966;48.064;-0.792;2023-04-02T03:54:59;3.65;;;2.00;;
50954;SDS011;36966;48.064;-0.792;2023-04-02T03:57:32;3.80;;;2.05;;
50954;SDS011;36966;48.064;-0.792;2023-04-02T04:05:00;4.43;;;2.08;;
50954;SDS011;36966;48.064;-0.792;2023-04-02T04:07:27;5.72;;;2.35;;
50954;SDS011;36966;48.064;-0.792;2023-04-02T04:09:50;5.20;;;1.88;;
50954;SDS011;36966;48.064;-0.792;2023-04-02T04:14:50;6.43;;;2.58;;
50954;SDS011;36966;48.064;-0.792;2023-04-02T04:22:32;5.60;;;2.65;;
50954;SDS011;36966;48.064;-0.792;2023-04-02T04:24:52;7.22;;;2.67;;
50954;SDS011;36966;48.064;-0.792;2023-04-02T04:27:23;9.05;;;2.72;;
50954;SDS011;36966;48.064;-0.792;2023-04-02T04:29:58;4.05;;;2.00;;
50954;SDS011;36966;48.064;-0.792;2023-04-02T04:32:44;5.40;;;2.42;;
50954;SDS011;36966;48.064;-0.792;2023-04-02T04:35:27;5.93;;;2.50;;
50954;SDS011;36966;48.064;-0.792;2023-04-02T04:37:47;6.25;;;2.42;;
50954;SDS011;36966;48.064;-0.792;2023-04-02T04:40:20;6.30;;;2.40;;
50954;SDS011;36966;48.064;-0.792;2023-04-02T04:42:42;4.75;;;2.67;;
50954;SDS011;36966;48.064;-0.792;2023-04-02T04:47:48;7.13;;;2.70;;
50954;SDS011;36966;48.064;-0.792;2023-04-02T04:50:17;5.20;;;2.35;;
50954;SDS011;36966;48.064;-0.792;2023-04-02T04:52:54;3.10;;;2.05;;
50954;SDS011;36966;48.064;-0.792;2023-04-02T04:55:47;5.55;;;2.25;;
50954;SDS011;36966;48.064;-0.792;2023-04-02T04:58:03;5.72;;;2.13;;
50954;SDS011;36966;48.064;-0.792;2023-04-02T05:03:29;3.97;;;2.80;;
50954;SDS011;36966;48.064;-0.792;2023-04-02T05:06:12;9.50;;;2.70;;
50954;SDS011;36966;48.064;-0.792;2023-04-02T05:08:44;5.43;;;2.60;;
50954;SDS011;36966;48.064;-0.792;2023-04-02T05:11:14;3.88;;;2.03;;
50954;SDS011;36966;48.064;-0.792;2023-04-02T05:14:01;7.07;;;3.00;;
50954;SDS011;36966;48.064;-0.792;2023-04-02T05:19:42;22.25;;;16.65;;
50954;SDS011;36966;48.064;-0.792;2023-04-02T05:22:34;32.38;;;21.70;;
50954;SDS011;36966;48.064;-0.792;2023-04-02T05:24:58;33.65;;;22.05;;
50954;SDS011;36966;48.064;-0.792;2023-04-02T05:27:25;25.48;;;16.50;;
50954;SDS011;36966;48.064;-0.792;2023-04-02T05:32:40;17.60;;;11.77;;
50954;SDS011;36966;48.064;-0.792;2023-04-02T05:35:03;18.73;;;12.00;;
50954;SDS011;36966;48.064;-0.792;2023-04-02T05:37:25;23.63;;;13.45;;
50954;SDS011;36966;48.064;-0.792;2023-04-02T05:39:49;21.85;;;13.27;;
50954;SDS011;36966;48.064;-0.792;2023-04-02T05:42:14;22.15;;;12.73;;
50954;SDS011;36966;48.064;-0.792;2023-04-02T05:44:42;21.88;;;11.73;;
50954;SDS011;36966;48.064;-0.792;2023-04-02T05:47:27;15.05;;;10.27;;
50954;SDS011;36966;48.064;-0.792;2023-04-02T05:50:04;20.40;;;10.60;;
50954;SDS011;36966;48.064;-0.792;2023-04-02T05:52:36;21.65;;;11.50;;
50954;SDS011;36966;48.064;-0.792;2023-04-02T05:57:24;14.45;;;9.15;;
50954;SDS011;36966;48.064;-0.792;2023-04-02T05:59:55;18.50;;;7.95;;
50954;SDS011;36966;48.064;-0.792;2023-04-02T06:02:21;12.52;;;8.50;;
50954;SDS011;36966;48.064;-0.792;2023-04-02T06:07:35;12.93;;;7.55;;
50954;SDS011;36966;48.064;-0.792;2023-04-02T06:12:55;13.90;;;8.05;;
50954;SDS011;36966;48.064;-0.792;2023-04-02T06:15:21;13.52;;;7.95;;
50954;SDS011;36966;48.064;-0.792;2023-04-02T06:17:43;11.52;;;6.97;;
50954;SDS011;36966;48.064;-0.792;2023-04-02T06:20:18;12.10;;;7.00;;
50954;SDS011;36966;48.064;-0.792;2023-04-02T06:22:38;10.80;;;7.45;;
50954;SDS011;36966;48.064;-0.792;2023-04-02T06:25:04;10.13;;;6.53;;
50954;SDS011;36966;48.064;-0.792;2023-04-02T06:27:31;8.75;;;5.22;;
50954;SDS011;36966;48.064;-0.792;2023-04-02T06:29:52;9.90;;;6.07;;
50954;SDS011;36966;48.064;-0.792;2023-04-02T06:32:17;11.50;;;5.57;;
50954;SDS011;36966;48.064;-0.792;2023-04-02T06:34:40;10.97;;;5.27;;
50954;SDS011;36966;48.064;-0.792;2023-04-02T06:37:01;9.60;;;5.25;;
50954;SDS011;36966;48.064;-0.792;2023-04-02T06:39:29;6.78;;;4.32;;
50954;SDS011;36966;48.064;-0.792;2023-04-02T06:42:32;4.35;;;2.55;;
50954;SDS011;36966;48.064;-0.792;2023-04-02T06:44:34;5.70;;;4.32;;
50954;SDS011;36966;48.064;-0.792;2023-04-02T06:46:59;10.68;;;5.20;;
50954;SDS011;36966;48.064;-0.792;2023-04-02T06:51:52;5.90;;;3.67;;
50954;SDS011;36966;48.064;-0.792;2023-04-02T06:54:16;9.15;;;3.70;;
50954;SDS011;36966;48.064;-0.792;2023-04-02T06:56:47;5.30;;;3.80;;
50954;SDS011;36966;48.064;-0.792;2023-04-02T06:59:09;4.45;;;3.50;;
50954;SDS011;36966;48.064;-0.792;2023-04-02T07:01:31;5.75;;;2.95;;
50954;SDS011;36966;48.064;-0.792;2023-04-02T07:06:14;7.10;;;3.80;;
50954;SDS011;36966;48.064;-0.792;2023-04-02T07:08:36;6.95;;;3.30;;
50954;SDS011;36966;48.064;-0.792;2023-04-02T07:10:55;4.82;;;2.60;;
50954;SDS011;36966;48.064;-0.792;2023-04-02T07:13:15;5.65;;;2.80;;
50954;SDS011;36966;48.064;-0.792;2023-04-02T07:15:36;5.13;;;2.83;;
50954;SDS011;36966;48.064;-0.792;2023-04-02T07:17:55;4.60;;;2.58;;
50954;SDS011;36966;48.064;-0.792;2023-04-02T07:20:33;9.35;;;3.13;;
50954;SDS011;36966;48.064;-0.792;2023-04-02T07:22:56;5.80;;;2.78;;
50954;SDS011;36966;48.064;-0.792;2023-04-02T07:25:16;7.22;;;2.50;;
50954;SDS011;36966;48.064;-0.792;2023-04-02T07:27:35;4.57;;;2.70;;
50954;SDS011;36966;48.064;-0.792;2023-04-02T07:29:55;4.65;;;2.55;;
50954;SDS011;36966;48.064;-0.792;2023-04-02T07:32:14;3.92;;;2.50;;
50954;SDS011;36966;48.064;-0.792;2023-04-02T07:34:33;7.22;;;2.72;;
50954;SDS011;36966;48.064;-0.792;2023-04-02T07:36:53;4.85;;;2.10;;
50954;SDS011;36966;48.064;-0.792;2023-04-02T07:39:12;4.85;;;2.35;;
50954;SDS011;36966;48.064;-0.792;2023-04-02T07:41:31;4.50;;;1.98;;
50954;SDS011;36966;48.064;-0.792;2023-04-02T07:43:50;5.72;;;2.15;;
50954;SDS011;36966;48.064;-0.792;2023-04-02T07:46:09;5.07;;;1.67;;
50954;SDS011;36966;48.064;-0.792;2023-04-02T07:48:32;3.20;;;1.80;;
50954;SDS011;36966;48.064;-0.792;2023-04-02T07:50:51;2.30;;;1.60;;
50954;SDS011;36966;48.064;-0.792;2023-04-02T07:53:14;3.25;;;2.00;;
50954;SDS011;36966;48.064;-0.792;2023-04-02T07:55:51;2.42;;;1.33;;
50954;SDS011;36966;48.064;-0.792;2023-04-02T07:58:10;3.97;;;1.67;;
50954;SDS011;36966;48.064;-0.792;2023-04-02T08:00:29;3.25;;;1.25;;
50954;SDS011;36966;48.064;-0.792;2023-04-02T08:02:50;4.55;;;1.88;;
50954;SDS011;36966;48.064;-0.792;2023-04-02T08:05:10;4.45;;;1.52;;
50954;SDS011;36966;48.064;-0.792;2023-04-02T08:07:30;5.22;;;1.67;;
50954;SDS011;36966;48.064;-0.792;2023-04-02T08:09:49;3.92;;;1.23;;
50954;SDS011;36966;48.064;-0.792;2023-04-02T08:12:12;3.50;;;1.13;;
50954;SDS011;36966;48.064;-0.792;2023-04-02T08:14:32;4.57;;;1.80;;
50954;SDS011;36966;48.064;-0.792;2023-04-02T08:16:52;3.33;;;1.45;;
50954;SDS011;36966;48.064;-0.792;2023-04-02T08:19:13;3.92;;;1.58;;
50954;SDS011;36966;48.064;-0.792;2023-04-02T08:21:33;3.75;;;0.98;;
50954;SDS011;36966;48.064;-0.792;2023-04-02T08:23:52;6.80;;;1.50;;
50954;SDS011;36966;48.064;-0.792;2023-04-02T08:26:15;1.90;;;1.05;;
50954;SDS011;36966;48.064;-0.792;2023-04-02T08:30:55;1.83;;;0.82;;
50954;SDS011;36966;48.064;-0.792;2023-04-02T08:33:15;1.70;;;0.52;;
50954;SDS011;36966;48.064;-0.792;2023-04-02T08:35:35;1.40;;;0.65;;
50954;SDS011;36966;48.064;-0.792;2023-04-02T08:37:55;1.98;;;0.60;;
50954;SDS011;36966;48.064;-0.792;2023-04-02T08:40:22;2.03;;;0.60;;
50954;SDS011;36966;48.064;-0.792;2023-04-02T08:45:36;1.45;;;0.40;;
50954;SDS011;36966;48.064;-0.792;2023-04-02T08:48:12;1.10;;;0.50;;
50954;SDS011;36966;48.064;-0.792;2023-04-02T08:50:34;5.75;;;0.57;;
50954;SDS011;36966;48.064;-0.792;2023-04-02T08:52:58;1.38;;;0.52;;
50954;SDS011;36966;48.064;-0.792;2023-04-02T08:58:09;0.85;;;0.52;;
50954;SDS011;36966;48.064;-0.792;2023-04-02T09:00:45;1.33;;;0.80;;
50954;SDS011;36966;48.064;-0.792;2023-04-02T09:05:38;1.20;;;0.65;;
50954;SDS011;36966;48.064;-0.792;2023-04-02T09:08:01;0.80;;;0.32;;
50954;SDS011;36966;48.064;-0.792;2023-04-02T09:10:24;2.05;;;0.50;;
50954;SDS011;36966;48.064;-0.792;2023-04-02T09:12:55;1.65;;;0.63;;
50954;SDS011;36966;48.064;-0.792;2023-04-02T09:15:20;1.95;;;0.85;;
50954;SDS011;36966;48.064;-0.792;2023-04-02T09:17:47;1.65;;;0.50;;
50954;SDS011;36966;48.064;-0.792;2023-04-02T09:20:15;1.85;;;1.00;;
50954;SDS011;36966;48.064;-0.792;2023-04-02T09:22:37;2.05;;;0.60;;
50954;SDS011;36966;48.064;-0.792;2023-04-02T09:24:58;1.45;;;0.40;;
50954;SDS011;36966;48.064;-0.792;2023-04-02T09:27:33;2.08;;;0.60;;
50954;SDS011;36966;48.064;-0.792;2023-04-02T09:29:54;1.52;;;0.68;;
50954;SDS011;36966;48.064;-0.792;2023-04-02T09:35:09;2.15;;;0.40;;
50954;SDS011;36966;48.064;-0.792;2023-04-02T09:37:34;3.40;;;0.30;;
50954;SDS011;36966;48.064;-0.792;2023-04-02T09:40:07;4.45;;;0.60;;
50954;SDS011;36966;48.064;-0.792;2023-04-02T09:42:47;1.38;;;0.50;;
50954;SDS011;36966;48.064;-0.792;2023-04-02T09:45:16;1.27;;;0.52;;
50954;SDS011;36966;48.064;-0.792;2023-04-02T09:47:43;2.55;;;0.50;;
50954;SDS011;36966;48.064;-0.792;2023-04-02T09:52:47;0.60;;;0.45;;
50954;SDS011;36966;48.064;-0.792;2023-04-02T09:57:32;1.33;;;0.45;;
50954;SDS011;36966;48.064;-0.792;2023-04-02T10:02:34;1.70;;;0.32;;
50954;SDS011;36966;48.064;-0.792;2023-04-02T10:04:54;0.47;;;0.28;;
50954;SDS011;36966;48.064;-0.792;2023-04-02T10:09:56;1.30;;;0.30;;
50954;SDS011;36966;48.064;-0.792;2023-04-02T10:12:17;2.10;;;0.60;;
50954;SDS011;36966;48.064;-0.792;2023-04-02T10:14:37;0.73;;;0.10;;
50954;SDS011;36966;48.064;-0.792;2023-04-02T10:17:23;0.68;;;0.17;;
50954;SDS011;36966;48.064;-0.792;2023-04-02T10:19:49;0.70;;;0.30;;
50954;SDS011;36966;48.064;-0.792;2023-04-02T10:22:17;1.52;;;0.25;;
50954;SDS011;36966;48.064;-0.792;2023-04-02T10:24:37;0.93;;;0.20;;
50954;SDS011;36966;48.064;-0.792;2023-04-02T10:32:04;5.63;;;0.95;;
50954;SDS011;36966;48.064;-0.792;2023-04-02T10:34:42;0.77;;;0.20;;
50954;SDS011;36966;48.064;-0.792;2023-04-02T10:42:42;0.52;;;0.15;;
50954;SDS011;36966;48.064;-0.792;2023-04-02T10:45:31;1.55;;;0.10;;
50954;SDS011;36966;48.064;-0.792;2023-04-02T10:48:07;2.60;;;0.32;;
50954;SDS011;36966;48.064;-0.792;2023-04-02T10:53:15;0.10;;;0.10;;
50954;SDS011;36966;48.064;-0.792;2023-04-02T10:55:43;0.63;;;0.20;;
50954;SDS011;36966;48.064;-0.792;2023-04-02T10:58:24;0.13;;;0.10;;
50954;SDS011;36966;48.064;-0.792;2023-04-02T11:00:47;5.70;;;0.60;;
50954;SDS011;36966;48.064;-0.792;2023-04-02T11:03:12;0.25;;;0.20;;
50954;SDS011;36966;48.064;-0.792;2023-04-02T11:05:54;0.30;;;0.20;;
50954;SDS011;36966;48.064;-0.792;2023-04-02T11:08:27;0.98;;;0.32;;
50954;SDS011;36966;48.064;-0.792;2023-04-02T11:11:00;0.85;;;0.28;;
50954;SDS011;36966;48.064;-0.792;2023-04-02T11:16:38;2.45;;;0.52;;
50954;SDS011;36966;48.064;-0.792;2023-04-02T11:28:49;0.25;;;0.17;;
50954;SDS011;36966;48.064;-0.792;2023-04-02T11:31:29;0.98;;;0.30;;
50954;SDS011;36966;48.064;-0.792;2023-04-02T11:33:48;0.85;;;0.10;;
50954;SDS011;36966;48.064;-0.792;2023-04-02T11:39:05;1.45;;;0.20;;
50954;SDS011;36966;48.064;-0.792;2023-04-02T11:42:03;0.60;;;0.22;;
50954;SDS011;36966;48.064;-0.792;2023-04-02T11:44:22;0.25;;;0.17;;
50954;SDS011;36966;48.064;-0.792;2023-04-02T11:46:42;0.38;;;0.20;;
50954;SDS011;36966;48.064;-0.792;2023-04-02T11:49:38;0.13;;;0.10;;
50954;SDS011;36966;48.064;-0.792;2023-04-02T11:51:52;0.10;;;0.00;;
50954;SDS011;36966;48.064;-0.792;2023-04-02T11:54:20;0.30;;;0.13;;
50954;SDS011;36966;48.064;-0.792;2023-04-02T11:56:49;0.13;;;0.10;;
50954;SDS011;36966;48.064;-0.792;2023-04-02T12:02:23;0.20;;;0.10;;
50954;SDS011;36966;48.064;-0.792;2023-04-02T12:05:06;0.15;;;0.10;;
50954;SDS011;36966;48.064;-0.792;2023-04-02T12:10:54;0.52;;;0.10;;
50954;SDS011;36966;48.064;-0.792;2023-04-02T12:13:19;0.55;;;0.10;;
50954;SDS011;36966;48.064;-0.792;2023-04-02T12:15:58;0.20;;;0.10;;
50954;SDS011;36966;48.064;-0.792;2023-04-02T12:18:19;0.28;;;0.10;;
50954;SDS011;36966;48.064;-0.792;2023-04-02T12:20:44;0.20;;;0.10;;
50954;SDS011;36966;48.064;-0.792;2023-04-02T12:23:11;0.38;;;0.03;;
50954;SDS011;36966;48.064;-0.792;2023-04-02T12:25:38;0.68;;;0.20;;
50954;SDS011;36966;48.064;-0.792;2023-04-02T12:30:37;0.28;;;0.10;;
50954;SDS011;36966;48.064;-0.792;2023-04-02T12:33:12;0.82;;;0.10;;
50954;SDS011;36966;48.064;-0.792;2023-04-02T12:35:45;0.38;;;0.20;;
50954;SDS011;36966;48.064;-0.792;2023-04-02T12:38:16;0.10;;;0.10;;
50954;SDS011;36966;48.064;-0.792;2023-04-02T12:40:37;0.40;;;0.10;;
50954;SDS011;36966;48.064;-0.792;2023-04-02T12:42:56;0.43;;;0.10;;
50954;SDS011;36966;48.064;-0.792;2023-04-02T12:45:34;0.25;;;0.20;;
50954;SDS011;36966;48.064;-0.792;2023-04-02T12:47:54;0.70;;;0.30;;
50954;SDS011;36966;48.064;-0.792;2023-04-02T12:50:14;0.95;;;0.45;;
50954;SDS011;36966;48.064;-0.792;2023-04-02T12:52:41;3.45;;;1.10;;
50954;SDS011;36966;48.064;-0.792;2023-04-02T12:55:05;0.50;;;0.30;;
50954;SDS011;36966;48.064;-0.792;2023-04-02T12:57:36;0.30;;;0.10;;
50954;SDS011;36966;48.064;-0.792;2023-04-02T13:02:42;0.38;;;0.10;;
50954;SDS011;36966;48.064;-0.792;2023-04-02T13:07:23;0.28;;;0.10;;
50954;SDS011;36966;48.064;-0.792;2023-04-02T13:09:48;0.40;;;0.10;;
50954;SDS011;36966;48.064;-0.792;2023-04-02T13:12:23;0.88;;;0.20;;
50954;SDS011;36966;48.064;-0.792;2023-04-02T13:14:50;1.00;;;0.20;;
50954;SDS011;36966;48.064;-0.792;2023-04-02T13:19:48;0.30;;;0.10;;
50954;SDS011;36966;48.064;-0.792;2023-04-02T13:22:26;0.30;;;0.10;;
50954;SDS011;36966;48.064;-0.792;2023-04-02T13:24:48;0.40;;;0.17;;
50954;SDS011;36966;48.064;-0.792;2023-04-02T13:27:08;0.20;;;0.10;;
50954;SDS011;36966;48.064;-0.792;2023-04-02T13:29:29;1.10;;;0.30;;
50954;SDS011;36966;48.064;-0.792;2023-04-02T13:31:52;0.55;;;0.40;;
50954;SDS011;36966;48.064;-0.792;2023-04-02T13:34:14;0.22;;;0.00;;
50954;SDS011;36966;48.064;-0.792;2023-04-02T13:36:33;0.17;;;0.10;;
50954;SDS011;36966;48.064;-0.792;2023-04-02T13:38:53;0.40;;;0.22;;
50954;SDS011;36966;48.064;-0.792;2023-04-02T13:41:20;0.30;;;0.10;;
50954;SDS011;36966;48.064;-0.792;2023-04-02T13:43:42;0.00;;;0.00;;
50954;SDS011;36966;48.064;-0.792;2023-04-02T13:46:02;0.90;;;0.10;;
50954;SDS011;36966;48.064;-0.792;2023-04-02T13:48:25;0.10;;;0.10;;
50954;SDS011;36966;48.064;-0.792;2023-04-02T13:50:46;0.30;;;0.15;;
50954;SDS011;36966;48.064;-0.792;2023-04-02T13:53:06;0.22;;;0.10;;
50954;SDS011;36966;48.064;-0.792;2023-04-02T13:55:31;0.75;;;0.20;;
50954;SDS011;36966;48.064;-0.792;2023-04-02T13:57:55;0.28;;;0.10;;
50954;SDS011;36966;48.064;-0.792;2023-04-02T14:00:16;1.27;;;0.68;;
50954;SDS011;36966;48.064;-0.792;2023-04-02T14:02:37;0.30;;;0.20;;
50954;SDS011;36966;48.064;-0.792;2023-04-02T14:09:47;1.85;;;0.55;;
50954;SDS011;36966;48.064;-0.792;2023-04-02T14:23:08;2.45;;;1.00;;
50954;SDS011;36966;48.064;-0.792;2023-04-02T14:25:56;2.00;;;0.80;;
50954;SDS011;36966;48.064;-0.792;2023-04-02T14:35:43;0.90;;;0.60;;
50954;SDS011;36966;48.064;-0.792;2023-04-02T14:38:08;1.20;;;0.50;;
50954;SDS011;36966;48.064;-0.792;2023-04-02T14:40:38;1.25;;;0.60;;
50954;SDS011;36966;48.064;-0.792;2023-04-02T14:43:11;2.30;;;0.90;;
50954;SDS011;36966;48.064;-0.792;2023-04-02T14:50:39;2.08;;;0.73;;
50954;SDS011;36966;48.064;-0.792;2023-04-02T14:53:00;2.38;;;0.73;;
50954;SDS011;36966;48.064;-0.792;2023-04-02T14:55:31;1.58;;;0.68;;
50954;SDS011;36966;48.064;-0.792;2023-04-02T14:57:55;2.80;;;1.05;;
50954;SDS011;36966;48.064;-0.792;2023-04-02T15:02:49;2.67;;;0.65;;
50954;SDS011;36966;48.064;-0.792;2023-04-02T15:08:11;3.40;;;0.80;;
50954;SDS011;36966;48.064;-0.792;2023-04-02T15:10:37;2.15;;;1.08;;
50954;SDS011;36966;48.064;-0.792;2023-04-02T15:13:07;2.55;;;1.10;;
50954;SDS011;36966;48.064;-0.792;2023-04-02T15:15:40;1.58;;;1.05;;
50954;SDS011;36966;48.064;-0.792;2023-04-02T15:18:05;2.53;;;0.70;;
50954;SDS011;36966;48.064;-0.792;2023-04-02T15:20:43;3.28;;;1.17;;
50954;SDS011;36966;48.064;-0.792;2023-04-02T15:23:20;4.60;;;1.27;;
50954;SDS011;36966;48.064;-0.792;2023-04-02T15:25:46;5.32;;;1.38;;
50954;SDS011;36966;48.064;-0.792;2023-04-02T15:30:40;5.05;;;0.95;;
50954;SDS011;36966;48.064;-0.792;2023-04-02T15:35:46;3.60;;;0.82;;
50954;SDS011;36966;48.064;-0.792;2023-04-02T15:40:58;2.95;;;1.08;;
50954;SDS011;36966;48.064;-0.792;2023-04-02T15:43:43;3.83;;;1.10;;
50954;SDS011;36966;48.064;-0.792;2023-04-02T15:46:20;4.20;;;1.15;;
50954;SDS011;36966;48.064;-0.792;2023-04-02T15:51:37;4.22;;;1.50;;
50954;SDS011;36966;48.064;-0.792;2023-04-02T15:54:29;4.03;;;1.23;;
50954;SDS011;36966;48.064;-0.792;2023-04-02T15:57:11;3.70;;;1.17;;
50954;SDS011;36966;48.064;-0.792;2023-04-02T15:59:42;4.18;;;1.30;;
50954;SDS011;36966;48.064;-0.792;2023-04-02T16:05:02;5.80;;;0.80;;
50954;SDS011;36966;48.064;-0.792;2023-04-02T16:12:39;3.00;;;0.90;;
50954;SDS011;36966;48.064;-0.792;2023-04-02T16:15:03;1.48;;;0.70;;
50954;SDS011;36966;48.064;-0.792;2023-04-02T16:17:41;2.08;;;0.75;;
50954;SDS011;36966;48.064;-0.792;2023-04-02T16:20:15;2.42;;;0.70;;
50954;SDS011;36966;48.064;-0.792;2023-04-02T16:22:39;5.53;;;1.10;;
50954;SDS011;36966;48.064;-0.792;2023-04-02T16:25:06;1.45;;;0.57;;
50954;SDS011;36966;48.064;-0.792;2023-04-02T16:27:33;2.95;;;0.77;;
50954;SDS011;36966;48.064;-0.792;2023-04-02T16:30:21;3.15;;;1.52;;
50954;SDS011;36966;48.064;-0.792;2023-04-02T16:59:54;3.47;;;1.25;;
50954;SDS011;36966;48.064;-0.792;2023-04-02T17:07:32;1.42;;;0.65;;
50954;SDS011;36966;48.064;-0.792;2023-04-02T17:12:46;6.40;;;1.27;;
50954;SDS011;36966;48.064;-0.792;2023-04-02T17:15:27;2.63;;;1.17;;
50954;SDS011;36966;48.064;-0.792;2023-04-02T17:17:54;3.65;;;0.80;;
50954;SDS011;36966;48.064;-0.792;2023-04-02T17:20:17;4.93;;;1.20;;
50954;SDS011;36966;48.064;-0.792;2023-04-02T17:22:39;3.83;;;1.05;;
50954;SDS011;36966;48.064;-0.792;2023-04-02T17:24:59;3.67;;;0.95;;
50954;SDS011;36966;48.064;-0.792;2023-04-02T17:27:30;2.13;;;0.70;;
50954;SDS011;36966;48.064;-0.792;2023-04-02T17:29:51;3.15;;;0.70;;
50954;SDS011;36966;48.064;-0.792;2023-04-02T17:32:15;2.33;;;0.90;;
50954;SDS011;36966;48.064;-0.792;2023-04-02T17:34:40;6.35;;;1.00;;
50954;SDS011;36966;48.064;-0.792;2023-04-02T17:37:07;3.95;;;0.82;;
50954;SDS011;36966;48.064;-0.792;2023-04-02T17:53:26;2.90;;;1.00;;
50954;SDS011;36966;48.064;-0.792;2023-04-02T18:03:47;2.72;;;0.73;;
50954;SDS011;36966;48.064;-0.792;2023-04-02T18:17:09;2.40;;;0.63;;
50954;SDS011;36966;48.064;-0.792;2023-04-02T18:22:52;3.00;;;0.68;;
50954;SDS011;36966;48.064;-0.792;2023-04-02T18:25:37;4.03;;;1.05;;
50954;SDS011;36966;48.064;-0.792;2023-04-02T18:30:52;4.03;;;0.70;;
50954;SDS011;36966;48.064;-0.792;2023-04-02T18:39:02;3.38;;;0.77;;
50954;SDS011;36966;48.064;-0.792;2023-04-02T18:51:37;6.18;;;0.93;;
50954;SDS011;36966;48.064;-0.792;2023-04-02T18:54:09;6.07;;;1.40;;
50954;SDS011;36966;48.064;-0.792;2023-04-02T18:56:39;10.63;;;2.45;;
50954;SDS011;36966;48.064;-0.792;2023-04-02T18:59:13;13.52;;;2.55;;
50954;SDS011;36966;48.064;-0.792;2023-04-02T19:01:48;6.50;;;1.20;;
50954;SDS011;36966;48.064;-0.792;2023-04-02T19:04:24;4.30;;;1.00;;
50954;SDS011;36966;48.064;-0.792;2023-04-02T19:06:47;7.30;;;1.08;;
50954;SDS011;36966;48.064;-0.792;2023-04-02T19:09:33;6.82;;;1.38;;
50954;SDS011;36966;48.064;-0.792;2023-04-02T19:11:55;6.45;;;1.42;;
50954;SDS011;36966;48.064;-0.792;2023-04-02T19:14:16;5.43;;;1.77;;
50954;SDS011;36966;48.064;-0.792;2023-04-02T19:19:24;8.57;;;1.50;;
50954;SDS011;36966;48.064;-0.792;2023-04-02T19:27:04;8.32;;;1.10;;
50954;SDS011;36966;48.064;-0.792;2023-04-02T19:31:58;12.23;;;2.17;;
50954;SDS011;36966;48.064;-0.792;2023-04-02T19:45:02;4.40;;;1.20;;
50954;SDS011;36966;48.064;-0.792;2023-04-02T19:47:21;8.07;;;1.40;;
50954;SDS011;36966;48.064;-0.792;2023-04-02T19:49:41;6.60;;;1.25;;